sensor_id;sensor_type;location;lat;lon;timestamp;pressure;altitude;pressure_sealevel;temperature
38114;BMP180;23926;53.222;6.354;2023-02-27T09:53:38;102994.00;;;6.60
38114;BMP180;23926;53.222;6.354;2023-02-27T09:56:27;103032.00;;;7.30
38114;BMP180;23926;53.222;6.354;2023-02-27T10:08:49;103033.00;;;8.60
38114;BMP180;23926;53.222;6.354;2023-02-27T10:17:31;102992.00;;;8.70
38114;BMP180;23926;53.222;6.354;2023-02-27T10:20:13;103023.00;;;8.60
38114;BMP180;23926;53.222;6.354;2023-02-27T10:22:45;103017.00;;;8.70
38114;BMP180;23926;53.222;6.354;2023-02-27T10:25:42;103014.00;;;8.60
38114;BMP180;23926;53.222;6.354;2023-02-27T10:28:33;103015.00;;;8.70
38114;BMP180;23926;53.222;6.354;2023-02-27T10:31:20;103034.00;;;8.70
38114;BMP180;23926;53.222;6.354;2023-02-27T10:33:48;103037.00;;;8.70
38114;BMP180;23926;53.222;6.354;2023-02-27T10:36:18;103032.00;;;8.60
38114;BMP180;23926;53.222;6.354;2023-02-27T10:38:54;103041.00;;;8.50
38114;BMP180;23926;53.222;6.354;2023-02-27T10:41:34;103001.00;;;8.50
38114;BMP180;23926;53.222;6.354;2023-02-27T10:44:05;103006.00;;;8.50
38114;BMP180;23926;53.222;6.354;2023-02-27T10:46:44;103006.00;;;8.50
38114;BMP180;23926;53.222;6.354;2023-02-27T10:49:16;103003.00;;;8.50
38114;BMP180;23926;53.222;6.354;2023-02-27T10:52:05;103039.00;;;8.50
38114;BMP180;23926;53.222;6.354;2023-02-27T10:54:39;103041.00;;;8.70
38114;BMP180;23926;53.222;6.354;2023-02-27T10:57:29;103040.00;;;8.80
38114;BMP180;23926;53.222;6.354;2023-02-27T11:00:00;103019.00;;;8.80
38114;BMP180;23926;53.222;6.354;2023-02-27T11:02:37;103034.00;;;8.80
38114;BMP180;23926;53.222;6.354;2023-02-27T11:05:18;103039.00;;;8.80
38114;BMP180;23926;53.222;6.354;2023-02-27T11:07:46;103040.00;;;8.80
38114;BMP180;23926;53.222;6.354;2023-02-27T11:10:18;103035.00;;;8.90
38114;BMP180;23926;53.222;6.354;2023-02-27T11:13:17;103012.00;;;8.90
38114;BMP180;23926;53.222;6.354;2023-02-27T11:15:43;102997.00;;;8.90
38114;BMP180;23926;53.222;6.354;2023-02-27T11:18:31;103013.00;;;8.80
38114;BMP180;23926;53.222;6.354;2023-02-27T11:21:23;103020.00;;;8.90
38114;BMP180;23926;53.222;6.354;2023-02-27T11:24:03;103014.00;;;8.90
38114;BMP180;23926;53.222;6.354;2023-02-27T11:26:38;103026.00;;;9.20
38114;BMP180;23926;53.222;6.354;2023-02-27T11:29:16;103005.00;;;9.30
38114;BMP180;23926;53.222;6.354;2023-02-27T11:32:01;103017.00;;;9.40
38114;BMP180;23926;53.222;6.354;2023-02-27T11:34:35;103021.00;;;9.30
38114;BMP180;23926;53.222;6.354;2023-02-27T11:37:33;103020.00;;;9.50
38114;BMP180;23926;53.222;6.354;2023-02-27T11:40:14;102990.00;;;9.60
38114;BMP180;23926;53.222;6.354;2023-02-27T11:42:48;103004.00;;;9.60
38114;BMP180;23926;53.222;6.354;2023-02-27T11:45:34;103016.00;;;9.60
38114;BMP180;23926;53.222;6.354;2023-02-27T11:48:08;103014.00;;;9.50
38114;BMP180;23926;53.222;6.354;2023-02-27T11:53:33;103005.00;;;9.40
38114;BMP180;23926;53.222;6.354;2023-02-27T11:56:07;103016.00;;;9.50
38114;BMP180;23926;53.222;6.354;2023-02-27T11:58:39;102997.00;;;9.40
38114;BMP180;23926;53.222;6.354;2023-02-27T12:01:17;102983.00;;;9.30
38114;BMP180;23926;53.222;6.354;2023-02-27T12:06:41;102972.00;;;9.50
38114;BMP180;23926;53.222;6.354;2023-02-27T12:12:00;103003.00;;;9.50
38114;BMP180;23926;53.222;6.354;2023-02-27T12:14:39;103001.00;;;9.50
38114;BMP180;23926;53.222;6.354;2023-02-27T12:17:22;102995.00;;;9.30
38114;BMP180;23926;53.222;6.354;2023-02-27T12:22:41;103005.00;;;9.50
38114;BMP180;23926;53.222;6.354;2023-02-27T12:30:41;103019.00;;;9.40
38114;BMP180;23926;53.222;6.354;2023-02-27T12:33:35;103007.00;;;9.30
38114;BMP180;23926;53.222;6.354;2023-02-27T12:36:13;102995.00;;;9.20
38114;BMP180;23926;53.222;6.354;2023-02-27T12:38:42;102977.00;;;9.30
38114;BMP180;23926;53.222;6.354;2023-02-27T12:44:54;102995.00;;;9.10
38114;BMP180;23926;53.222;6.354;2023-02-27T12:47:48;102989.00;;;8.90
38114;BMP180;23926;53.222;6.354;2023-02-27T12:50:24;102995.00;;;9.00
38114;BMP180;23926;53.222;6.354;2023-02-27T12:55:47;103007.00;;;9.20
38114;BMP180;23926;53.222;6.354;2023-02-27T13:01:04;103002.00;;;9.40
38114;BMP180;23926;53.222;6.354;2023-02-27T13:04:21;103000.00;;;9.20
38114;BMP180;23926;53.222;6.354;2023-02-27T13:10:02;102993.00;;;9.10
38114;BMP180;23926;53.222;6.354;2023-02-27T13:13:02;102964.00;;;8.90
38114;BMP180;23926;53.222;6.354;2023-02-27T13:15:32;103001.00;;;8.90
38114;BMP180;23926;53.222;6.354;2023-02-27T13:21:33;102933.00;;;9.00
38114;BMP180;23926;53.222;6.354;2023-02-27T13:24:24;102986.00;;;9.10
38114;BMP180;23926;53.222;6.354;2023-02-27T13:27:21;102990.00;;;9.10
38114;BMP180;23926;53.222;6.354;2023-02-27T13:33:28;102964.00;;;9.30
38114;BMP180;23926;53.222;6.354;2023-02-27T13:36:28;102985.00;;;9.30
38114;BMP180;23926;53.222;6.354;2023-02-27T13:42:51;102991.00;;;9.50
38114;BMP180;23926;53.222;6.354;2023-02-27T13:45:52;102988.00;;;9.40
38114;BMP180;23926;53.222;6.354;2023-02-27T13:49:29;102947.00;;;9.50
38114;BMP180;23926;53.222;6.354;2023-02-27T13:51:56;102994.00;;;9.40
38114;BMP180;23926;53.222;6.354;2023-02-27T13:55:04;102997.00;;;9.40
38114;BMP180;23926;53.222;6.354;2023-02-27T13:57:44;102964.00;;;9.50
38114;BMP180;23926;53.222;6.354;2023-02-27T14:00:34;102998.00;;;9.50
38114;BMP180;23926;53.222;6.354;2023-02-27T14:03:43;103001.00;;;9.30
38114;BMP180;23926;53.222;6.354;2023-02-27T14:06:41;102953.00;;;9.40
38114;BMP180;23926;53.222;6.354;2023-02-27T14:09:25;102995.00;;;9.50
38114;BMP180;23926;53.222;6.354;2023-02-27T14:12:49;102955.00;;;9.50
38114;BMP180;23926;53.222;6.354;2023-02-27T14:15:55;102967.00;;;9.60
38114;BMP180;23926;53.222;6.354;2023-02-27T14:18:55;102939.00;;;9.50
38114;BMP180;23926;53.222;6.354;2023-02-27T14:21:56;103000.00;;;9.60
38114;BMP180;23926;53.222;6.354;2023-02-27T14:24:38;103004.00;;;9.50
38114;BMP180;23926;53.222;6.354;2023-02-27T14:27:52;103009.00;;;9.50
38114;BMP180;23926;53.222;6.354;2023-02-27T14:30:57;102945.00;;;9.40
38114;BMP180;23926;53.222;6.354;2023-02-27T14:33:51;102964.00;;;9.30
38114;BMP180;23926;53.222;6.354;2023-02-27T14:36:54;102987.00;;;9.40
38114;BMP180;23926;53.222;6.354;2023-02-27T14:39:48;103007.00;;;9.50
38114;BMP180;23926;53.222;6.354;2023-02-27T14:43:07;102976.00;;;9.50
38114;BMP180;23926;53.222;6.354;2023-02-27T14:46:44;102984.00;;;9.60
38114;BMP180;23926;53.222;6.354;2023-02-27T14:49:28;102982.00;;;9.70
38114;BMP180;23926;53.222;6.354;2023-02-27T14:52:24;103010.00;;;9.60
38114;BMP180;23926;53.222;6.354;2023-02-27T14:55:39;102999.00;;;9.30
38114;BMP180;23926;53.222;6.354;2023-02-27T14:58:16;103007.00;;;9.30
38114;BMP180;23926;53.222;6.354;2023-02-27T15:01:11;102951.00;;;9.00
38114;BMP180;23926;53.222;6.354;2023-02-27T15:03:55;103006.00;;;9.30
38114;BMP180;23926;53.222;6.354;2023-02-27T15:06:46;103007.00;;;9.40
38114;BMP180;23926;53.222;6.354;2023-02-27T15:09:38;103013.00;;;9.50
38114;BMP180;23926;53.222;6.354;2023-02-27T15:12:41;102940.00;;;9.60
38114;BMP180;23926;53.222;6.354;2023-02-27T15:15:36;102983.00;;;9.60
38114;BMP180;23926;53.222;6.354;2023-02-27T15:18:38;102953.00;;;9.50
38114;BMP180;23926;53.222;6.354;2023-02-27T15:21:36;102994.00;;;9.50
38114;BMP180;23926;53.222;6.354;2023-02-27T15:24:34;102938.00;;;9.40
38114;BMP180;23926;53.222;6.354;2023-02-27T15:27:31;102962.00;;;9.40
38114;BMP180;23926;53.222;6.354;2023-02-27T15:30:22;102971.00;;;9.40
38114;BMP180;23926;53.222;6.354;2023-02-27T15:33:03;102970.00;;;9.40
38114;BMP180;23926;53.222;6.354;2023-02-27T15:35:43;102956.00;;;9.50
38114;BMP180;23926;53.222;6.354;2023-02-27T15:38:45;102960.00;;;9.60
38114;BMP180;23926;53.222;6.354;2023-02-27T15:41:38;102951.00;;;9.60
38114;BMP180;23926;53.222;6.354;2023-02-27T15:44:19;102962.00;;;9.60
38114;BMP180;23926;53.222;6.354;2023-02-27T15:46:52;102958.00;;;9.50
38114;BMP180;23926;53.222;6.354;2023-02-27T15:50:23;102962.00;;;9.50
38114;BMP180;23926;53.222;6.354;2023-02-27T15:53:23;102964.00;;;9.60
38114;BMP180;23926;53.222;6.354;2023-02-27T15:56:07;102956.00;;;9.70
38114;BMP180;23926;53.222;6.354;2023-02-27T15:58:49;102970.00;;;9.60
38114;BMP180;23926;53.222;6.354;2023-02-27T16:01:30;102966.00;;;9.50
38114;BMP180;23926;53.222;6.354;2023-02-27T16:04:14;102949.00;;;9.40
38114;BMP180;23926;53.222;6.354;2023-02-27T16:06:49;102998.00;;;9.40
38114;BMP180;23926;53.222;6.354;2023-02-27T16:09:32;102978.00;;;9.40
38114;BMP180;23926;53.222;6.354;2023-02-27T16:12:41;102973.00;;;9.50
38114;BMP180;23926;53.222;6.354;2023-02-27T16:15:36;102977.00;;;9.40
38114;BMP180;23926;53.222;6.354;2023-02-27T16:18:48;102999.00;;;9.30
38114;BMP180;23926;53.222;6.354;2023-02-27T16:21:25;102986.00;;;9.30
38114;BMP180;23926;53.222;6.354;2023-02-27T16:24:19;102995.00;;;9.30
38114;BMP180;23926;53.222;6.354;2023-02-27T16:27:36;102957.00;;;9.20
38114;BMP180;23926;53.222;6.354;2023-02-27T16:30:10;102967.00;;;9.10
38114;BMP180;23926;53.222;6.354;2023-02-27T16:33:01;102933.00;;;9.10
38114;BMP180;23926;53.222;6.354;2023-02-27T16:36:16;102984.00;;;9.00
38114;BMP180;23926;53.222;6.354;2023-02-27T16:38:58;102952.00;;;9.00
38114;BMP180;23926;53.222;6.354;2023-02-27T16:42:01;102969.00;;;8.90
38114;BMP180;23926;53.222;6.354;2023-02-27T16:45:00;102933.00;;;8.80
38114;BMP180;23926;53.222;6.354;2023-02-27T16:47:45;102973.00;;;8.60
38114;BMP180;23926;53.222;6.354;2023-02-27T16:50:39;102996.00;;;8.70
38114;BMP180;23926;53.222;6.354;2023-02-27T16:53:14;102980.00;;;8.40
38114;BMP180;23926;53.222;6.354;2023-02-27T16:56:19;102990.00;;;8.60
38114;BMP180;23926;53.222;6.354;2023-02-27T16:59:01;102971.00;;;8.50
38114;BMP180;23926;53.222;6.354;2023-02-27T17:01:30;103000.00;;;8.40
38114;BMP180;23926;53.222;6.354;2023-02-27T17:04:03;102973.00;;;8.40
38114;BMP180;23926;53.222;6.354;2023-02-27T17:07:02;102984.00;;;8.30
38114;BMP180;23926;53.222;6.354;2023-02-27T17:09:57;102984.00;;;8.10
38114;BMP180;23926;53.222;6.354;2023-02-27T17:13:10;102986.00;;;8.20
38114;BMP180;23926;53.222;6.354;2023-02-27T17:16:04;102995.00;;;8.10
38114;BMP180;23926;53.222;6.354;2023-02-27T17:18:51;102991.00;;;8.10
38114;BMP180;23926;53.222;6.354;2023-02-27T17:21:34;102964.00;;;8.10
38114;BMP180;23926;53.222;6.354;2023-02-27T17:24:35;103007.00;;;8.00
38114;BMP180;23926;53.222;6.354;2023-02-27T17:27:40;103011.00;;;8.10
38114;BMP180;23926;53.222;6.354;2023-02-27T17:30:33;102972.00;;;7.90
38114;BMP180;23926;53.222;6.354;2023-02-27T17:33:25;103002.00;;;7.90
38114;BMP180;23926;53.222;6.354;2023-02-27T17:36:15;102979.00;;;7.90
38114;BMP180;23926;53.222;6.354;2023-02-27T17:39:10;102975.00;;;7.90
38114;BMP180;23926;53.222;6.354;2023-02-27T17:41:59;102984.00;;;7.80
38114;BMP180;23926;53.222;6.354;2023-02-27T17:44:48;103016.00;;;7.80
38114;BMP180;23926;53.222;6.354;2023-02-27T17:47:27;102954.00;;;7.90
38114;BMP180;23926;53.222;6.354;2023-02-27T17:50:14;102971.00;;;7.90
38114;BMP180;23926;53.222;6.354;2023-02-27T17:53:03;102961.00;;;7.90
38114;BMP180;23926;53.222;6.354;2023-02-27T17:56:19;103043.00;;;7.80
38114;BMP180;23926;53.222;6.354;2023-02-27T17:59:13;103023.00;;;7.80
38114;BMP180;23926;53.222;6.354;2023-02-27T18:02:11;102974.00;;;7.80
38114;BMP180;23926;53.222;6.354;2023-02-27T18:05:02;102984.00;;;7.80
38114;BMP180;23926;53.222;6.354;2023-02-27T18:07:42;102991.00;;;7.80
38114;BMP180;23926;53.222;6.354;2023-02-27T18:10:46;102979.00;;;7.80
38114;BMP180;23926;53.222;6.354;2023-02-27T18:13:49;102992.00;;;7.80
38114;BMP180;23926;53.222;6.354;2023-02-27T18:16:39;102987.00;;;7.80
38114;BMP180;23926;53.222;6.354;2023-02-27T18:19:29;103006.00;;;7.80
38114;BMP180;23926;53.222;6.354;2023-02-27T18:22:37;103010.00;;;7.70
38114;BMP180;23926;53.222;6.354;2023-02-27T18:25:40;103008.00;;;7.70
38114;BMP180;23926;53.222;6.354;2023-02-27T18:29:01;103046.00;;;7.50
38114;BMP180;23926;53.222;6.354;2023-02-27T18:32:10;102978.00;;;7.50
38114;BMP180;23926;53.222;6.354;2023-02-27T18:35:20;102973.00;;;7.40
38114;BMP180;23926;53.222;6.354;2023-02-27T18:38:34;103027.00;;;7.30
38114;BMP180;23926;53.222;6.354;2023-02-27T18:41:32;102980.00;;;7.30
38114;BMP180;23926;53.222;6.354;2023-02-27T18:44:12;102989.00;;;7.20
38114;BMP180;23926;53.222;6.354;2023-02-27T18:47:25;102983.00;;;7.20
38114;BMP180;23926;53.222;6.354;2023-02-27T18:50:13;103029.00;;;7.10
38114;BMP180;23926;53.222;6.354;2023-02-27T18:53:12;102990.00;;;7.10
38114;BMP180;23926;53.222;6.354;2023-02-27T18:56:01;103032.00;;;7.00
38114;BMP180;23926;53.222;6.354;2023-02-27T18:58:34;102994.00;;;7.00
38114;BMP180;23926;53.222;6.354;2023-02-27T19:01:25;103026.00;;;6.90
38114;BMP180;23926;53.222;6.354;2023-02-27T19:04:14;102972.00;;;6.80
38114;BMP180;23926;53.222;6.354;2023-02-27T19:07:21;102982.00;;;6.80
38114;BMP180;23926;53.222;6.354;2023-02-27T19:10:13;102981.00;;;6.70
38114;BMP180;23926;53.222;6.354;2023-02-27T19:16:26;103007.00;;;6.50
38114;BMP180;23926;53.222;6.354;2023-02-27T19:19:09;102977.00;;;6.40
38114;BMP180;23926;53.222;6.354;2023-02-27T19:22:21;102942.00;;;6.30
38114;BMP180;23926;53.222;6.354;2023-02-27T19:25:46;102969.00;;;6.20
38114;BMP180;23926;53.222;6.354;2023-02-27T19:28:29;102984.00;;;5.90
38114;BMP180;23926;53.222;6.354;2023-02-27T19:31:43;103019.00;;;5.90
38114;BMP180;23926;53.222;6.354;2023-02-27T19:34:22;102976.00;;;5.90
38114;BMP180;23926;53.222;6.354;2023-02-27T19:37:33;102976.00;;;5.80
38114;BMP180;23926;53.222;6.354;2023-02-27T19:40:33;103035.00;;;5.90
38114;BMP180;23926;53.222;6.354;2023-02-27T19:43:26;103003.00;;;5.90
38114;BMP180;23926;53.222;6.354;2023-02-27T19:46:13;103034.00;;;6.00
38114;BMP180;23926;53.222;6.354;2023-02-27T19:48:57;103028.00;;;5.90
38114;BMP180;23926;53.222;6.354;2023-02-27T19:51:31;102969.00;;;6.00
38114;BMP180;23926;53.222;6.354;2023-02-27T19:54:16;103011.00;;;6.10
38114;BMP180;23926;53.222;6.354;2023-02-27T19:57:13;103006.00;;;6.10
38114;BMP180;23926;53.222;6.354;2023-02-27T19:59:46;103002.00;;;6.10
38114;BMP180;23926;53.222;6.354;2023-02-27T20:02:12;103047.00;;;6.10
38114;BMP180;23926;53.222;6.354;2023-02-27T20:04:38;103036.00;;;6.20
38114;BMP180;23926;53.222;6.354;2023-02-27T20:07:04;103036.00;;;6.20
38114;BMP180;23926;53.222;6.354;2023-02-27T20:09:30;103028.00;;;6.20
38114;BMP180;23926;53.222;6.354;2023-02-27T20:11:57;103041.00;;;6.30
38114;BMP180;23926;53.222;6.354;2023-02-27T20:14:25;103000.00;;;6.30
38114;BMP180;23926;53.222;6.354;2023-02-27T20:16:51;103023.00;;;6.30
38114;BMP180;23926;53.222;6.354;2023-02-27T20:19:17;103009.00;;;6.50
38114;BMP180;23926;53.222;6.354;2023-02-27T20:21:44;103007.00;;;6.60
38114;BMP180;23926;53.222;6.354;2023-02-27T20:24:10;103007.00;;;6.70
38114;BMP180;23926;53.222;6.354;2023-02-27T20:26:42;103035.00;;;6.60
38114;BMP180;23926;53.222;6.354;2023-02-27T20:29:12;103020.00;;;6.70
38114;BMP180;23926;53.222;6.354;2023-02-27T20:31:40;103016.00;;;6.70
38114;BMP180;23926;53.222;6.354;2023-02-27T20:34:06;103014.00;;;6.60
38114;BMP180;23926;53.222;6.354;2023-02-27T20:36:35;102996.00;;;6.50
38114;BMP180;23926;53.222;6.354;2023-02-27T20:39:00;102998.00;;;6.30
38114;BMP180;23926;53.222;6.354;2023-02-27T20:41:26;103024.00;;;6.30
38114;BMP180;23926;53.222;6.354;2023-02-27T20:43:52;103026.00;;;6.30
38114;BMP180;23926;53.222;6.354;2023-02-27T20:46:20;103020.00;;;6.20
38114;BMP180;23926;53.222;6.354;2023-02-27T20:48:46;103007.00;;;6.30
38114;BMP180;23926;53.222;6.354;2023-02-27T20:51:17;103016.00;;;6.40
38114;BMP180;23926;53.222;6.354;2023-02-27T20:53:46;103017.00;;;6.50
38114;BMP180;23926;53.222;6.354;2023-02-27T20:56:12;103012.00;;;6.60
38114;BMP180;23926;53.222;6.354;2023-02-27T20:58:38;103020.00;;;6.50
38114;BMP180;23926;53.222;6.354;2023-02-27T21:01:11;103044.00;;;6.50
38114;BMP180;23926;53.222;6.354;2023-02-27T21:03:38;103040.00;;;6.40
38114;BMP180;23926;53.222;6.354;2023-02-27T21:06:06;103012.00;;;6.50
38114;BMP180;23926;53.222;6.354;2023-02-27T21:08:34;103035.00;;;6.60
38114;BMP180;23926;53.222;6.354;2023-02-27T21:11:08;103018.00;;;6.70
38114;BMP180;23926;53.222;6.354;2023-02-27T21:13:33;103049.00;;;6.80
38114;BMP180;23926;53.222;6.354;2023-02-27T21:16:01;103054.00;;;6.90
38114;BMP180;23926;53.222;6.354;2023-02-27T21:18:27;103051.00;;;6.90
38114;BMP180;23926;53.222;6.354;2023-02-27T21:20:53;103017.00;;;6.90
38114;BMP180;23926;53.222;6.354;2023-02-27T21:23:20;102989.00;;;6.90
38114;BMP180;23926;53.222;6.354;2023-02-27T21:25:46;103039.00;;;6.90
38114;BMP180;23926;53.222;6.354;2023-02-27T21:28:12;103019.00;;;6.80
38114;BMP180;23926;53.222;6.354;2023-02-27T21:30:38;103037.00;;;7.00
38114;BMP180;23926;53.222;6.354;2023-02-27T21:33:04;103026.00;;;7.00
38114;BMP180;23926;53.222;6.354;2023-02-27T21:35:29;103048.00;;;7.00
38114;BMP180;23926;53.222;6.354;2023-02-27T21:37:55;102990.00;;;7.10
38114;BMP180;23926;53.222;6.354;2023-02-27T21:40:24;103009.00;;;7.00
38114;BMP180;23926;53.222;6.354;2023-02-27T21:42:51;103041.00;;;7.00
38114;BMP180;23926;53.222;6.354;2023-02-27T21:45:18;103005.00;;;7.00
38114;BMP180;23926;53.222;6.354;2023-02-27T21:47:43;103050.00;;;7.10
38114;BMP180;23926;53.222;6.354;2023-02-27T21:50:09;103041.00;;;7.10
38114;BMP180;23926;53.222;6.354;2023-02-27T21:52:42;103044.00;;;7.10
38114;BMP180;23926;53.222;6.354;2023-02-27T21:55:09;103046.00;;;7.10
38114;BMP180;23926;53.222;6.354;2023-02-27T21:57:36;103043.00;;;7.10
38114;BMP180;23926;53.222;6.354;2023-02-27T22:00:03;103011.00;;;7.20
38114;BMP180;23926;53.222;6.354;2023-02-27T22:02:32;103044.00;;;7.20
38114;BMP180;23926;53.222;6.354;2023-02-27T22:04:58;103053.00;;;7.20
38114;BMP180;23926;53.222;6.354;2023-02-27T22:07:23;103025.00;;;7.20
38114;BMP180;23926;53.222;6.354;2023-02-27T22:09:49;103050.00;;;7.10
38114;BMP180;23926;53.222;6.354;2023-02-27T22:12:14;103058.00;;;7.20
38114;BMP180;23926;53.222;6.354;2023-02-27T22:14:42;103019.00;;;7.30
38114;BMP180;23926;53.222;6.354;2023-02-27T22:17:08;103053.00;;;7.30
38114;BMP180;23926;53.222;6.354;2023-02-27T22:19:33;103048.00;;;7.30
38114;BMP180;23926;53.222;6.354;2023-02-27T22:21:59;103026.00;;;7.30
38114;BMP180;23926;53.222;6.354;2023-02-27T22:24:24;103050.00;;;7.30
38114;BMP180;23926;53.222;6.354;2023-02-27T22:26:50;103056.00;;;7.30
38114;BMP180;23926;53.222;6.354;2023-02-27T22:29:16;103032.00;;;7.30
38114;BMP180;23926;53.222;6.354;2023-02-27T22:31:42;103042.00;;;7.40
38114;BMP180;23926;53.222;6.354;2023-02-27T22:34:11;103015.00;;;7.50
38114;BMP180;23926;53.222;6.354;2023-02-27T22:36:37;103053.00;;;7.40
38114;BMP180;23926;53.222;6.354;2023-02-27T22:39:04;103062.00;;;7.50
38114;BMP180;23926;53.222;6.354;2023-02-27T22:41:32;103034.00;;;7.40
38114;BMP180;23926;53.222;6.354;2023-02-27T22:44:00;103042.00;;;7.40
38114;BMP180;23926;53.222;6.354;2023-02-27T22:48:57;103018.00;;;7.50
38114;BMP180;23926;53.222;6.354;2023-02-27T22:51:24;103074.00;;;7.50
38114;BMP180;23926;53.222;6.354;2023-02-27T22:53:53;103075.00;;;7.50
38114;BMP180;23926;53.222;6.354;2023-02-27T22:56:19;103026.00;;;7.50
38114;BMP180;23926;53.222;6.354;2023-02-27T22:58:44;103066.00;;;7.50
38114;BMP180;23926;53.222;6.354;2023-02-27T23:01:15;103074.00;;;7.50
38114;BMP180;23926;53.222;6.354;2023-02-27T23:03:43;103070.00;;;7.60
38114;BMP180;23926;53.222;6.354;2023-02-27T23:06:11;103072.00;;;7.50
38114;BMP180;23926;53.222;6.354;2023-02-27T23:08:38;103090.00;;;7.60
38114;BMP180;23926;53.222;6.354;2023-02-27T23:11:04;103068.00;;;7.70
38114;BMP180;23926;53.222;6.354;2023-02-27T23:13:29;103080.00;;;7.60
38114;BMP180;23926;53.222;6.354;2023-02-27T23:15:57;103065.00;;;7.50
38114;BMP180;23926;53.222;6.354;2023-02-27T23:18:22;103076.00;;;7.50
38114;BMP180;23926;53.222;6.354;2023-02-27T23:20:48;103073.00;;;7.60
38114;BMP180;23926;53.222;6.354;2023-02-27T23:23:13;103065.00;;;7.50
38114;BMP180;23926;53.222;6.354;2023-02-27T23:25:39;103063.00;;;7.50
38114;BMP180;23926;53.222;6.354;2023-02-27T23:28:06;103057.00;;;7.50
38114;BMP180;23926;53.222;6.354;2023-02-27T23:30:32;103053.00;;;7.50
38114;BMP180;23926;53.222;6.354;2023-02-27T23:32:58;103070.00;;;7.50
38114;BMP180;23926;53.222;6.354;2023-02-27T23:35:24;103057.00;;;7.40
38114;BMP180;23926;53.222;6.354;2023-02-27T23:37:57;103050.00;;;7.40
38114;BMP180;23926;53.222;6.354;2023-02-27T23:40:25;103029.00;;;7.40
38114;BMP180;23926;53.222;6.354;2023-02-27T23:42:51;103055.00;;;7.40
38114;BMP180;23926;53.222;6.354;2023-02-27T23:45:16;103032.00;;;7.40
38114;BMP180;23926;53.222;6.354;2023-02-27T23:47:49;103053.00;;;7.40
38114;BMP180;23926;53.222;6.354;2023-02-27T23:50:21;103065.00;;;7.40
38114;BMP180;23926;53.222;6.354;2023-02-27T23:52:48;103052.00;;;7.40
38114;BMP180;23926;53.222;6.354;2023-02-27T23:55:14;103064.00;;;7.30
38114;BMP180;23926;53.222;6.354;2023-02-27T23:57:40;103047.00;;;7.30
